Time,TemperatureF,DewpointF,PressureIn,WindDirection,WindDirectionDegrees,WindSpeedMPH,WindSpeedGustMPH,Humidity,HourlyPrecipIn,Conditions,Clouds,dailyrainin,SoftwareType,DateUTC
2013-09-02 00:02:00,84.2,63.5,29.06,SSE,148,3.6,6.3,50,0.00,,,0.00,LWC V2.10 B1813,2013-09-02 05:02:00,
2013-09-02 00:07:00,84.0,64.5,29.06,SSW,205,4.9,8.7,52,0.00,,,0.00,LWC V2.10 B1813,2013-09-02 05:07:00,
2013-09-02 00:12:00,84.0,65.0,29.06,SSE,153,4.0,8.1,53,0.00,,,0.00,LWC V2.10 B1813,2013-09-02 05:12:00,
2013-09-02 00:17:00,83.8,64.8,29.06,South,179,4.0,8.1,53,0.00,,,0.00,LWC V2.10 B1813,2013-09-02 05:17:00,
2013-09-02 00:22:00,83.7,65.2,29.06,SSE,166,6.3,6.3,54,0.00,,,0.00,LWC V2.10 B1813,2013-09-02 05:22:00,
2013-09-02 00:27:00,83.5,65.1,29.06,SSW,206,6.3,6.3,54,0.00,,,0.00,LWC V2.10 B1813,2013-09-02 05:27:00,
2013-09-02 00:32:00,83.5,65.6,29.06,South,181,8.7,8.7,55,0.00,,,0.00,LWC V2.10 B1813,2013-09-02 05:32:00,
2013-09-02 00:37:00,83.3,65.4,29.06,SE,146,6.3,7.6,55,0.00,,,0.00,LWC V2.10 B1813,2013-09-02 05:37:00,
2013-09-02 00:42:00,83.3,65.9,29.06,South,172,3.1,8.1,56,0.00,,,0.00,LWC V2.10 B1813,2013-09-02 05:42:00,
2013-09-02 00:47:00,83.1,65.8,29.06,South,180,6.7,6.7,56,0.00,,,0.00,LWC V2.10 B1813,2013-09-02 05:47:00,
2013-09-02 00:52:00,82.9,66.1,29.06,SSE,166,6.7,7.6,57,0.00,,,0.00,LWC V2.10 B1813,2013-09-02 05:52:00,
2013-09-02 00:57:00,82.8,65.9,29.06,South,174,6.3,6.3,57,0.00,,,0.00,LWC V2.10 B1813,2013-09-02 05:57:00,
2013-09-02 01:02:00,82.6,66.3,29.06,SSE,159,5.4,6.3,58,0.00,,,0.00,LWC V2.10 B1813,2013-09-02 06:02:00,
2013-09-02 01:07:00,82.6,66.8,29.06,South,169,5.8,8.7,59,0.00,,,0.00,LWC V2.10 B1813,2013-09-02 06:07:00,
2013-09-02 01:12:00,82.6,66.8,29.06,SSE,147,5.4,6.3,59,0.00,,,0.00,LWC V2.10 B1813,2013-09-02 06:12:00,
2013-09-02 01:17:00,82.4,66.6,29.06,SE,130,3.1,5.8,59,0.00,,,0.00,LWC V2.10 B1813,2013-09-02 06:17:00,
2013-09-02 01:22:00,82.2,66.9,29.06,SSE,147,3.6,3.6,60,0.00,,,0.00,LWC V2.10 B1813,2013-09-02 06:22:00,
2013-09-02 01:27:00,82.0,66.8,29.06,South,171,5.8,7.6,60,0.00,,,0.00,LWC V2.10 B1813,2013-09-02 06:27:00,
2013-09-02 01:32:00,82.2,67.9,29.09,SSE,164,4.0,11.9,62,0.00,,,0.00,LWC V2.10 B1813,2013-09-02 06:32:00,
2013-09-02 01:37:00,81.9,67.1,29.09,SSW,211,3.6,4.0,61,0.00,,,0.00,LWC V2.10 B1813,2013-09-02 06:37:00,
2013-09-02 01:42:00,81.9,67.5,29.09,South,175,4.0,6.7,62,0.00,,,0.00,LWC V2.10 B1813,2013-09-02 06:42:00,
2013-09-02 01:47:00,81.7,67.8,29.09,SSE,157,7.2,8.3,63,0.00,,,0.00,LWC V2.10 B1813,2013-09-02 06:47:00,
2013-09-02 01:52:00,81.5,67.7,29.06,South,187,8.7,8.7,63,0.00,,,0.00,LWC V2.10 B1813,2013-09-02 06:52:00,
2013-09-02 01:57:00,81.7,68.3,29.06,SSE,149,5.8,8.1,64,0.00,,,0.00,LWC V2.10 B1813,2013-09-02 06:57:00,
2013-09-02 02:02:00,81.5,68.1,29.09,South,177,5.8,5.8,64,0.00,,,0.00,LWC V2.10 B1813,2013-09-02 07:02:00,
2013-09-02 02:07:00,81.3,68.4,29.09,South,181,3.1,6.3,65,0.00,,,0.00,LWC V2.10 B1813,2013-09-02 07:07:00,
2013-09-02 02:12:00,81.3,68.4,29.09,SE,137,4.0,8.1,65,0.00,,,0.00,LWC V2.10 B1813,2013-09-02 07:12:00,
2013-09-02 02:17:00,81.1,68.7,29.06,SSE,162,7.6,8.3,66,0.00,,,0.00,LWC V2.10 B1813,2013-09-02 07:17:00,
2013-09-02 02:22:00,81.1,68.7,29.06,SSW,193,4.9,5.8,66,0.00,,,0.00,LWC V2.10 B1813,2013-09-02 07:22:00,
2013-09-02 02:27:00,81.0,68.5,29.06,South,186,7.2,9.6,66,0.00,,,0.00,LWC V2.10 B1813,2013-09-02 07:27:00,
2013-09-02 02:32:00,81.0,68.5,29.06,SSW,209,4.0,5.8,66,0.00,,,0.00,LWC V2.10 B1813,2013-09-02 07:32:00,
2013-09-02 02:37:00,81.0,68.5,29.06,South,178,3.6,5.4,66,0.00,,,0.00,LWC V2.10 B1813,2013-09-02 07:37:00,
2013-09-02 02:42:00,80.8,68.3,29.06,SSW,193,3.6,5.8,66,0.00,,,0.00,LWC V2.10 B1813,2013-09-02 07:42:00,
2013-09-02 02:47:00,80.8,68.8,29.06,SSW,195,5.4,6.3,67,0.00,,,0.00,LWC V2.10 B1813,2013-09-02 07:47:00,
2013-09-02 02:52:00,80.6,68.2,29.06,SSE,156,3.1,4.0,66,0.00,,,0.00,LWC V2.10 B1813,2013-09-02 07:52:00,
2013-09-02 02:57:00,80.6,68.2,29.06,SSW,202,2.7,3.6,66,0.00,,,0.00,LWC V2.10 B1813,2013-09-02 07:57:00,
2013-09-02 03:02:00,80.4,68.0,29.06,South,169,0.0,0.0,66,0.00,,,0.00,LWC V2.10 B1813,2013-09-02 08:02:00,
2013-09-02 03:07:00,80.4,68.0,29.06,South,183,0.0,2.7,66,0.00,,,0.00,LWC V2.10 B1813,2013-09-02 08:07:00,
2013-09-02 03:12:00,80.1,67.7,29.06,South,173,2.7,4.0,66,0.00,,,0.00,LWC V2.10 B1813,2013-09-02 08:12:00,
2013-09-02 03:17:00,80.1,68.1,29.06,South,180,3.1,5.4,67,0.00,,,0.00,LWC V2.10 B1813,2013-09-02 08:17:00,
2013-09-02 03:22:00,80.1,68.1,29.06,South,185,2.7,5.8,67,0.00,,,0.00,LWC V2.10 B1813,2013-09-02 08:22:00,
2013-09-02 03:27:00,79.9,67.5,29.06,South,174,0.0,2.7,66,0.00,,,0.00,LWC V2.10 B1813,2013-09-02 08:27:00,
2013-09-02 03:32:00,79.9,67.9,29.06,SSE,155,3.1,4.9,67,0.00,,,0.00,LWC V2.10 B1813,2013-09-02 08:32:00,
2013-09-02 03:37:00,79.7,67.7,29.06,SSE,162,3.6,4.5,67,0.00,,,0.00,LWC V2.10 B1813,2013-09-02 08:37:00,
2013-09-02 03:42:00,79.7,67.7,29.06,SE,127,3.1,6.3,67,0.00,,,0.00,LWC V2.10 B1813,2013-09-02 08:42:00,
2013-09-02 03:47:00,79.7,68.2,29.06,SW,221,7.6,7.6,68,0.00,,,0.00,LWC V2.10 B1813,2013-09-02 08:47:00,
2013-09-02 03:52:00,79.7,68.2,29.06,South,186,4.9,8.3,68,0.00,,,0.00,LWC V2.10 B1813,2013-09-02 08:52:00,
2013-09-02 03:57:00,79.7,68.2,29.06,South,184,3.6,4.0,68,0.00,,,0.00,LWC V2.10 B1813,2013-09-02 08:57:00,
2013-09-02 04:02:00,79.5,68.0,29.09,South,182,4.9,4.9,68,0.00,,,0.00,LWC V2.10 B1813,2013-09-02 09:02:00,
2013-09-02 04:07:00,79.3,68.3,29.09,South,172,5.8,5.8,69,0.00,,,0.00,LWC V2.10 B1813,2013-09-02 09:07:00,
2013-09-02 04:12:00,79.3,68.3,29.09,SSW,196,3.6,5.4,69,0.00,,,0.00,LWC V2.10 B1813,2013-09-02 09:12:00,
2013-09-02 04:17:00,79.3,68.3,29.09,South,186,3.1,4.5,69,0.00,,,0.00,LWC V2.10 B1813,2013-09-02 09:17:00,
2013-09-02 04:22:00,79.2,68.1,29.09,South,172,3.1,3.1,69,0.00,,,0.00,LWC V2.10 B1813,2013-09-02 09:22:00,
2013-09-02 04:27:00,79.0,67.9,29.09,SSW,205,2.7,2.7,69,0.00,,,0.00,LWC V2.10 B1813,2013-09-02 09:27:00,
2013-09-02 04:32:00,79.0,68.3,29.09,SSW,201,4.9,4.9,70,0.00,,,0.00,LWC V2.10 B1813,2013-09-02 09:32:00,
2013-09-02 04:37:00,79.0,68.3,29.09,SW,215,3.1,4.9,70,0.00,,,0.00,LWC V2.10 B1813,2013-09-02 09:37:00,
2013-09-02 04:42:00,78.8,68.2,29.09,SSW,193,3.6,4.9,70,0.00,,,0.00,LWC V2.10 B1813,2013-09-02 09:42:00,
2013-09-02 04:47:00,78.8,68.6,29.06,SSW,193,2.2,4.0,71,0.00,,,0.00,LWC V2.10 B1813,2013-09-02 09:47:00,
2013-09-02 04:52:00,78.4,68.6,29.06,SSW,193,3.1,3.6,72,0.00,,,0.00,LWC V2.10 B1813,2013-09-02 09:52:00,
2013-09-02 04:58:00,78.3,68.5,29.06,South,184,4.0,4.0,72,0.00,,,0.00,LWC V2.10 B1813,2013-09-02 09:58:00,
2013-09-02 05:03:00,78.3,68.9,29.06,South,178,5.8,5.8,73,0.00,,,0.00,LWC V2.10 B1813,2013-09-02 10:03:00,
2013-09-02 05:08:00,78.3,69.3,29.06,South,182,4.0,6.3,74,0.00,,,0.00,LWC V2.10 B1813,2013-09-02 10:08:00,
2013-09-02 05:13:00,78.3,69.3,29.06,South,185,3.1,5.4,74,0.00,,,0.00,LWC V2.10 B1813,2013-09-02 10:13:00,
2013-09-02 05:18:00,78.3,69.3,29.09,South,191,4.0,6.3,74,0.00,,,0.00,LWC V2.10 B1813,2013-09-02 10:18:00,
2013-09-02 05:23:00,78.3,69.3,29.09,SSE,162,2.7,5.4,74,0.00,,,0.00,LWC V2.10 B1813,2013-09-02 10:23:00,
2013-09-02 05:28:00,78.3,69.3,29.09,SSW,210,3.6,4.9,74,0.00,,,0.00,LWC V2.10 B1813,2013-09-02 10:28:00,
2013-09-02 05:33:00,78.1,69.1,29.09,SSW,194,2.7,3.6,74,0.00,,,0.00,LWC V2.10 B1813,2013-09-02 10:33:00,
2013-09-02 05:38:00,78.1,69.1,29.09,SSW,196,5.4,5.4,74,0.00,,,0.00,LWC V2.10 B1813,2013-09-02 10:38:00,
2013-09-02 05:43:00,77.9,69.3,29.09,South,178,5.4,5.4,75,0.00,,,0.00,LWC V2.10 B1813,2013-09-02 10:43:00,
2013-09-02 05:48:00,77.7,69.1,29.09,South,175,3.6,5.8,75,0.00,,,0.00,LWC V2.10 B1813,2013-09-02 10:48:00,
2013-09-02 05:53:00,77.7,69.1,29.09,SW,214,2.7,3.6,75,0.00,,,0.00,LWC V2.10 B1813,2013-09-02 10:53:00,
2013-09-02 05:58:00,77.7,68.8,29.09,SSE,151,4.0,4.0,74,0.00,,,0.00,LWC V2.10 B1813,2013-09-02 10:58:00,
2013-09-02 06:03:00,77.7,69.1,29.09,SSW,192,0.0,4.0,75,0.00,,,0.00,LWC V2.10 B1813,2013-09-02 11:03:00,
2013-09-02 06:08:00,77.5,69.0,29.09,South,177,2.2,4.9,75,0.00,,,0.00,LWC V2.10 B1813,2013-09-02 11:08:00,
2013-09-02 06:13:00,77.5,69.0,29.09,SSE,162,2.7,3.6,75,0.00,,,0.00,LWC V2.10 B1813,2013-09-02 11:13:00,
2013-09-02 06:18:00,77.2,68.6,29.09,SE,130,3.6,6.3,75,0.00,,,0.00,LWC V2.10 B1813,2013-09-02 11:18:00,
2013-09-02 06:23:00,77.2,69.0,29.09,South,176,4.9,4.9,76,0.00,,,0.00,LWC V2.10 B1813,2013-09-02 11:23:00,
2013-09-02 06:28:00,77.2,69.0,29.09,SSE,160,3.6,4.0,76,0.00,,,0.00,LWC V2.10 B1813,2013-09-02 11:28:00,
2013-09-02 06:33:00,77.2,69.0,29.09,South,182,3.1,4.0,76,0.00,,,0.00,LWC V2.10 B1813,2013-09-02 11:33:00,
2013-09-02 06:38:00,77.0,68.8,29.09,South,182,2.7,3.6,76,0.00,,,0.00,LWC V2.10 B1813,2013-09-02 11:38:00,
2013-09-02 06:43:00,76.8,69.0,29.09,SSE,168,2.7,3.6,77,0.00,,,0.00,LWC V2.10 B1813,2013-09-02 11:43:00,
2013-09-02 06:48:00,76.8,69.0,29.09,SW,227,2.7,4.9,77,0.00,,,0.00,LWC V2.10 B1813,2013-09-02 11:48:00,
2013-09-02 06:53:00,76.8,69.4,29.09,SSE,164,2.7,4.0,78,0.00,,,0.00,LWC V2.10 B1813,2013-09-02 11:53:00,
2013-09-02 06:58:00,77.2,69.4,29.09,SW,225,2.7,2.7,77,0.00,,,0.00,LWC V2.10 B1813,2013-09-02 11:58:00,
2013-09-02 07:03:00,77.2,69.4,29.12,SW,219,2.7,3.6,77,0.00,,,0.00,LWC V2.10 B1813,2013-09-02 12:03:00,
2013-09-02 07:08:00,77.4,69.6,29.12,SW,231,4.0,4.0,77,0.00,,,0.00,LWC V2.10 B1813,2013-09-02 12:08:00,
2013-09-02 07:13:00,77.0,69.2,29.12,WSW,253,3.6,4.0,77,0.00,,,0.00,LWC V2.10 B1813,2013-09-02 12:13:00,
2013-09-02 07:18:00,77.0,69.2,29.12,WNW,286,2.7,3.1,77,0.00,,,0.00,LWC V2.10 B1813,2013-09-02 12:18:00,
2013-09-02 07:23:00,77.0,69.2,29.12,WNW,282,2.7,3.1,77,0.00,,,0.00,LWC V2.10 B1813,2013-09-02 12:23:00,
2013-09-02 07:28:00,77.0,69.2,29.12,WNW,282,2.2,2.7,77,0.00,,,0.00,LWC V2.10 B1813,2013-09-02 12:28:00,
2013-09-02 07:33:00,76.8,69.4,29.12,WNW,282,2.7,2.7,78,0.00,,,0.00,LWC V2.10 B1813,2013-09-02 12:33:00,
2013-09-02 07:38:00,77.0,69.2,29.12,West,281,0.0,0.0,77,0.00,,,0.00,LWC V2.10 B1813,2013-09-02 12:38:00,
2013-09-02 07:43:00,77.4,69.6,29.12,West,281,0.0,0.0,77,0.00,,,0.00,LWC V2.10 B1813,2013-09-02 12:43:00,
2013-09-02 07:48:00,77.0,69.2,29.12,West,281,0.0,0.0,77,0.00,,,0.00,LWC V2.10 B1813,2013-09-02 12:48:00,
2013-09-02 07:53:00,77.0,69.2,29.12,West,271,0.0,2.2,77,0.00,,,0.00,LWC V2.10 B1813,2013-09-02 12:53:00,
2013-09-02 07:58:00,77.0,69.6,29.12,WSW,239,0.0,3.1,78,0.00,,,0.00,LWC V2.10 B1813,2013-09-02 12:58:00,
2013-09-02 08:03:00,77.2,69.8,29.12,SW,231,2.2,2.7,78,0.00,,,0.00,LWC V2.10 B1813,2013-09-02 13:03:00,
2013-09-02 08:08:00,77.9,70.1,29.12,WSW,245,3.1,3.1,77,0.00,,,0.00,LWC V2.10 B1813,2013-09-02 13:08:00,
2013-09-02 08:13:00,78.3,70.1,29.12,West,263,5.4,5.4,76,0.00,,,0.00,LWC V2.10 B1813,2013-09-02 13:13:00,
2013-09-02 08:18:00,78.3,69.7,29.15,West,267,4.9,4.9,75,0.00,,,0.00,LWC V2.10 B1813,2013-09-02 13:18:00,
2013-09-02 08:23:00,78.4,69.8,29.15,West,272,3.1,4.0,75,0.00,,,0.00,LWC V2.10 B1813,2013-09-02 13:23:00,
2013-09-02 08:28:00,78.6,69.6,29.15,SW,228,2.7,4.0,74,0.00,,,0.00,LWC V2.10 B1813,2013-09-02 13:28:00,
2013-09-02 08:33:00,78.8,69.8,29.15,SSW,205,2.7,4.0,74,0.00,,,0.00,LWC V2.10 B1813,2013-09-02 13:33:00,
2013-09-02 08:38:00,79.2,69.7,29.15,SW,219,2.7,3.6,73,0.00,,,0.00,LWC V2.10 B1813,2013-09-02 13:38:00,
2013-09-02 08:43:00,79.7,70.3,29.15,SW,229,4.0,4.0,73,0.00,,,0.00,LWC V2.10 B1813,2013-09-02 13:43:00,
2013-09-02 08:48:00,80.2,70.0,29.15,SW,222,3.6,4.0,71,0.00,,,0.00,LWC V2.10 B1813,2013-09-02 13:48:00,
2013-09-02 08:53:00,80.1,69.4,29.15,SSW,206,2.7,5.4,70,0.00,,,0.00,LWC V2.10 B1813,2013-09-02 13:53:00,
2013-09-02 08:58:00,80.4,69.7,29.15,SSW,213,3.1,3.6,70,0.00,,,0.00,LWC V2.10 B1813,2013-09-02 13:58:00,
2013-09-02 09:03:00,80.8,69.6,29.15,West,271,4.9,4.9,69,0.00,,,0.00,LWC V2.10 B1813,2013-09-02 14:03:00,
2013-09-02 09:08:00,81.3,69.7,29.15,SW,235,3.1,4.9,68,0.00,,,0.00,LWC V2.10 B1813,2013-09-02 14:08:00,
2013-09-02 09:13:00,81.3,69.7,29.15,SW,219,4.0,5.8,68,0.00,,,0.00,LWC V2.10 B1813,2013-09-02 14:13:00,
2013-09-02 09:18:00,81.5,69.5,29.15,SW,214,5.4,10.1,67,0.00,,,0.00,LWC V2.10 B1813,2013-09-02 14:18:00,
2013-09-02 09:23:00,82.2,69.7,29.15,SSW,211,3.6,6.3,66,0.00,,,0.00,LWC V2.10 B1813,2013-09-02 14:23:00,
2013-09-02 09:28:00,82.9,69.9,29.15,SSW,199,4.0,5.8,65,0.00,,,0.00,LWC V2.10 B1813,2013-09-02 14:28:00,
2013-09-02 09:33:00,83.3,70.3,29.15,WSW,245,4.9,5.4,65,0.00,,,0.00,LWC V2.10 B1813,2013-09-02 14:33:00,
2013-09-02 09:38:00,83.7,70.2,29.15,South,185,4.0,7.2,64,0.00,,,0.00,LWC V2.10 B1813,2013-09-02 14:38:00,
2013-09-02 09:43:00,83.5,69.5,29.15,SW,218,3.6,5.8,63,0.00,,,0.00,LWC V2.10 B1813,2013-09-02 14:43:00,
2013-09-02 09:48:00,83.5,69.1,29.15,SW,228,2.2,8.1,62,0.00,,,0.00,LWC V2.10 B1813,2013-09-02 14:48:00,
2013-09-02 09:53:00,84.4,69.4,29.15,West,264,5.8,5.8,61,0.00,,,0.00,LWC V2.10 B1813,2013-09-02 14:53:00,
2013-09-02 09:58:00,84.7,69.3,29.15,SSW,211,2.7,4.9,60,0.00,,,0.00,LWC V2.10 B1813,2013-09-02 14:58:00,
2013-09-02 10:03:00,85.5,69.5,29.15,WSW,254,5.8,6.3,59,0.00,,,0.00,LWC V2.10 B1813,2013-09-02 15:03:00,
2013-09-02 10:08:00,85.1,68.6,29.15,SW,214,3.6,7.2,58,0.00,,,0.00,LWC V2.10 B1813,2013-09-02 15:08:00,
2013-09-02 10:13:00,86.0,69.0,29.15,SW,227,3.6,6.3,57,0.00,,,0.00,LWC V2.10 B1813,2013-09-02 15:13:00,
2013-09-02 10:18:00,85.6,68.1,29.15,SSW,212,5.4,6.3,56,0.00,,,0.00,LWC V2.10 B1813,2013-09-02 15:18:00,
2013-09-02 10:23:00,86.2,68.1,29.15,South,187,3.6,5.4,55,0.00,,,0.00,LWC V2.10 B1813,2013-09-02 15:23:00,
2013-09-02 10:28:00,87.1,68.4,29.15,WSW,252,2.7,2.7,54,0.00,,,0.00,LWC V2.10 B1813,2013-09-02 15:28:00,
2013-09-02 10:33:00,87.1,67.8,29.15,SW,214,2.7,6.3,53,0.00,,,0.00,LWC V2.10 B1813,2013-09-02 15:33:00,
2013-09-02 10:38:00,88.2,68.3,29.15,WSW,257,3.6,3.6,52,0.00,,,0.00,LWC V2.10 B1813,2013-09-02 15:38:00,
2013-09-02 10:43:00,87.8,66.2,29.15,SW,226,7.6,8.1,49,0.00,,,0.00,LWC V2.10 B1813,2013-09-02 15:43:00,
2013-09-02 10:48:00,88.3,67.3,29.15,West,262,4.0,5.4,50,0.00,,,0.00,LWC V2.10 B1813,2013-09-02 15:48:00,
2013-09-02 10:53:00,88.3,66.7,29.15,SSW,200,3.6,6.3,49,0.00,,,0.00,LWC V2.10 B1813,2013-09-02 15:53:00,
2013-09-02 10:58:00,88.0,65.8,29.15,WSW,245,4.0,4.9,48,0.00,,,0.00,LWC V2.10 B1813,2013-09-02 15:58:00,
2013-09-02 11:03:00,88.9,66.6,29.15,WNW,290,3.1,5.4,48,0.00,,,0.00,LWC V2.10 B1813,2013-09-02 16:03:00,
2013-09-02 11:08:00,89.2,66.3,29.15,WNW,286,6.3,7.6,47,0.00,,,0.00,LWC V2.10 B1813,2013-09-02 16:08:00,
2013-09-02 11:13:00,89.2,65.7,29.15,South,178,0.0,3.1,46,0.00,,,0.00,LWC V2.10 B1813,2013-09-02 16:13:00,
2013-09-02 11:18:00,89.4,65.9,29.15,SSW,203,0.0,5.4,46,0.00,,,0.00,LWC V2.10 B1813,2013-09-02 16:18:00,
2013-09-02 11:23:00,89.6,66.0,29.15,SW,230,4.9,4.9,46,0.00,,,0.00,LWC V2.10 B1813,2013-09-02 16:23:00,
2013-09-02 11:28:00,91.0,66.7,29.15,WSW,249,2.7,2.7,45,0.00,,,0.00,LWC V2.10 B1813,2013-09-02 16:28:00,
2013-09-02 11:33:00,91.2,66.2,29.15,West,260,5.8,5.8,44,0.00,,,0.00,LWC V2.10 B1813,2013-09-02 16:33:00,
2013-09-02 11:38:00,91.2,65.5,29.15,West,265,4.9,8.3,43,0.00,,,0.00,LWC V2.10 B1813,2013-09-02 16:38:00,
2013-09-02 11:43:00,91.8,66.0,29.15,SW,236,3.1,4.0,43,0.00,,,0.00,LWC V2.10 B1813,2013-09-02 16:43:00,
2013-09-02 11:48:00,92.1,66.4,29.15,WSW,252,3.1,4.0,43,0.00,,,0.00,LWC V2.10 B1813,2013-09-02 16:48:00,
2013-09-02 11:53:00,92.5,66.0,29.15,NNW,341,2.7,5.8,42,0.00,,,0.00,LWC V2.10 B1813,2013-09-02 16:53:00,
2013-09-02 11:58:00,92.1,65.0,29.15,NW,310,4.0,5.8,41,0.00,,,0.00,LWC V2.10 B1813,2013-09-02 16:58:00,
2013-09-02 12:03:00,92.3,65.8,29.15,NNW,333,2.7,2.7,42,0.00,,,0.00,LWC V2.10 B1813,2013-09-02 17:03:00,
2013-09-02 12:08:00,92.5,66.0,29.15,NNE,19,2.2,2.7,42,0.00,,,0.00,LWC V2.10 B1813,2013-09-02 17:08:00,
2013-09-02 12:13:00,92.8,65.6,29.15,SSE,160,2.2,4.0,41,0.00,,,0.00,LWC V2.10 B1813,2013-09-02 17:13:00,
2013-09-02 12:18:00,93.9,66.6,29.15,West,263,3.1,3.1,41,0.00,,,0.00,LWC V2.10 B1813,2013-09-02 17:18:00,
2013-09-02 12:23:00,93.7,65.7,29.15,NW,322,2.7,5.8,40,0.00,,,0.00,LWC V2.10 B1813,2013-09-02 17:23:00,
2013-09-02 12:28:00,93.6,66.3,29.15,NW,310,5.8,5.8,41,0.00,,,0.00,LWC V2.10 B1813,2013-09-02 17:28:00,
2013-09-02 12:33:00,92.3,65.1,29.15,WNW,300,5.8,7.6,41,0.00,,,0.00,LWC V2.10 B1813,2013-09-02 17:33:00,
2013-09-02 12:38:00,91.8,65.4,29.15,WNW,285,2.7,5.8,42,0.00,,,0.00,LWC V2.10 B1813,2013-09-02 17:38:00,
2013-09-02 12:43:00,91.6,65.2,29.15,West,260,5.4,6.3,42,0.00,,,0.00,LWC V2.10 B1813,2013-09-02 17:43:00,
2013-09-02 12:48:00,91.8,65.4,29.12,SW,225,2.2,2.2,42,0.00,,,0.00,LWC V2.10 B1813,2013-09-02 17:48:00,
2013-09-02 12:53:00,93.0,65.8,29.12,WNW,292,6.3,6.3,41,0.00,,,0.00,LWC V2.10 B1813,2013-09-02 17:53:00,
2013-09-02 12:58:00,93.9,65.9,29.12,North,353,5.8,5.8,40,0.00,,,0.00,LWC V2.10 B1813,2013-09-02 17:58:00,
2013-09-02 13:03:00,94.5,65.6,29.12,WNW,297,7.6,7.6,39,0.00,,,0.00,LWC V2.10 B1813,2013-09-02 18:03:00,
2013-09-02 13:08:00,94.6,65.8,29.12,NW,324,4.0,8.3,39,0.00,,,0.00,LWC V2.10 B1813,2013-09-02 18:08:00,
2013-09-02 13:13:00,95.0,65.4,29.12,NW,323,3.1,5.4,38,0.00,,,0.00,LWC V2.10 B1813,2013-09-02 18:13:00,
2013-09-02 13:18:00,95.4,64.9,29.12,West,273,4.0,4.0,37,0.00,,,0.00,LWC V2.10 B1813,2013-09-02 18:18:00,
2013-09-02 13:23:00,96.3,65.7,29.12,SSW,200,2.7,3.1,37,0.00,,,0.00,LWC V2.10 B1813,2013-09-02 18:23:00,
2013-09-02 13:28:00,97.5,66.0,29.12,WNW,299,3.6,3.6,36,0.00,,,0.00,LWC V2.10 B1813,2013-09-02 18:28:00,
2013-09-02 13:33:00,97.9,67.1,29.12,NW,322,5.8,5.8,37,0.00,,,0.00,LWC V2.10 B1813,2013-09-02 18:33:00,
2013-09-02 13:38:00,96.6,66.0,29.12,NNE,13,6.3,9.6,37,0.00,,,0.00,LWC V2.10 B1813,2013-09-02 18:38:00,
2013-09-02 13:43:00,94.3,65.5,29.12,NNW,327,4.9,4.9,39,0.00,,,0.00,LWC V2.10 B1813,2013-09-02 18:43:00,
2013-09-02 13:48:00,93.2,65.2,29.09,NNE,33,4.0,4.0,40,0.00,,,0.00,LWC V2.10 B1813,2013-09-02 18:48:00,
2013-09-02 13:53:00,93.0,65.1,29.09,East,90,2.7,2.7,40,0.00,,,0.00,LWC V2.10 B1813,2013-09-02 18:53:00,
2013-09-02 13:58:00,94.6,65.8,29.09,North,350,7.6,7.6,39,0.00,,,0.00,LWC V2.10 B1813,2013-09-02 18:58:00,
2013-09-02 14:03:00,94.6,65.8,29.09,North,353,3.1,6.3,39,0.00,,,0.00,LWC V2.10 B1813,2013-09-02 19:03:00,
2013-09-02 14:08:00,95.2,65.5,29.09,North,7,2.7,4.9,38,0.00,,,0.00,LWC V2.10 B1813,2013-09-02 19:08:00,
2013-09-02 14:13:00,95.9,65.4,29.09,WNW,288,6.3,6.3,37,0.00,,,0.00,LWC V2.10 B1813,2013-09-02 19:13:00,
2013-09-02 14:18:00,96.3,65.7,29.09,SSW,197,4.9,4.9,37,0.00,,,0.00,LWC V2.10 B1813,2013-09-02 19:18:00,
2013-09-02 14:23:00,96.3,64.9,29.09,NNW,333,2.2,6.3,36,0.00,,,0.00,LWC V2.10 B1813,2013-09-02 19:23:00,
2013-09-02 14:28:00,95.4,64.1,29.09,SSW,203,3.1,6.3,36,0.00,,,0.00,LWC V2.10 B1813,2013-09-02 19:28:00,
2013-09-02 14:33:00,96.3,65.7,29.09,NNW,338,3.6,3.6,37,0.00,,,0.00,LWC V2.10 B1813,2013-09-02 19:33:00,
2013-09-02 14:38:00,95.5,65.1,29.09,NNE,32,3.6,7.6,37,0.00,,,0.00,LWC V2.10 B1813,2013-09-02 19:38:00,
2013-09-02 14:43:00,94.8,65.2,29.09,SE,124,3.6,4.9,38,0.00,,,0.00,LWC V2.10 B1813,2013-09-02 19:43:00,
2013-09-02 14:48:00,94.3,64.7,29.09,NE,43,4.0,5.8,38,0.00,,,0.00,LWC V2.10 B1813,2013-09-02 19:48:00,
2013-09-02 14:53:00,93.0,64.3,29.09,NW,311,4.0,5.8,39,0.00,,,0.00,LWC V2.10 B1813,2013-09-02 19:53:00,
2013-09-02 14:58:00,91.6,63.1,29.09,East,99,0.0,8.1,39,0.00,,,0.00,LWC V2.10 B1813,2013-09-02 19:58:00,
2013-09-02 15:03:00,91.0,64.0,29.06,NNE,19,2.7,4.0,41,0.00,,,0.00,LWC V2.10 B1813,2013-09-02 20:03:00,
2013-09-02 15:08:00,92.1,64.3,29.06,North,353,3.1,5.8,40,0.00,,,0.00,LWC V2.10 B1813,2013-09-02 20:08:00,
2013-09-02 15:13:00,94.6,65.8,29.06,NNE,21,0.0,5.4,39,0.00,,,0.00,LWC V2.10 B1813,2013-09-02 20:13:00,
2013-09-02 15:18:00,96.3,65.7,29.06,NE,55,2.7,4.0,37,0.00,,,0.00,LWC V2.10 B1813,2013-09-02 20:18:00,
2013-09-02 15:23:00,97.3,65.0,29.06,NNE,18,0.0,4.9,35,0.00,,,0.00,LWC V2.10 B1813,2013-09-02 20:23:00,
2013-09-02 15:28:00,97.5,66.0,29.06,ESE,110,7.2,8.1,36,0.00,,,0.00,LWC V2.10 B1813,2013-09-02 20:28:00,
2013-09-02 15:33:00,97.0,65.5,29.06,NNE,26,6.3,7.6,36,0.00,,,0.00,LWC V2.10 B1813,2013-09-02 20:33:00,
2013-09-02 15:38:00,96.4,65.1,29.06,NE,37,5.4,5.8,36,0.00,,,0.00,LWC V2.10 B1813,2013-09-02 20:38:00,
2013-09-02 15:43:00,96.8,65.4,29.06,NNE,31,6.3,6.3,36,0.00,,,0.00,LWC V2.10 B1813,2013-09-02 20:43:00,
2013-09-02 15:48:00,96.8,64.6,29.06,NNW,332,2.7,3.1,35,0.00,,,0.00,LWC V2.10 B1813,2013-09-02 20:48:00,
2013-09-02 15:53:00,97.5,65.2,29.06,NE,41,4.9,5.4,35,0.00,,,0.00,LWC V2.10 B1813,2013-09-02 20:53:00,
2013-09-02 15:58:00,97.5,64.4,29.06,North,357,4.9,4.9,34,0.00,,,0.00,LWC V2.10 B1813,2013-09-02 20:58:00,
2013-09-02 16:03:00,98.4,64.3,29.03,NNE,33,3.6,4.0,33,0.00,,,0.00,LWC V2.10 B1813,2013-09-02 21:03:00,
2013-09-02 16:08:00,99.0,64.8,29.03,East,87,0.0,4.0,33,0.00,,,0.00,LWC V2.10 B1813,2013-09-02 21:08:00,
2013-09-02 16:13:00,98.6,63.6,29.03,ESE,115,2.7,5.8,32,0.00,,,0.00,LWC V2.10 B1813,2013-09-02 21:13:00,
2013-09-02 16:18:00,98.4,64.3,29.03,NE,46,3.1,3.1,33,0.00,,,0.00,LWC V2.10 B1813,2013-09-02 21:18:00,
2013-09-02 16:23:00,98.2,63.3,29.03,East,99,0.0,4.9,32,0.00,,,0.00,LWC V2.10 B1813,2013-09-02 21:23:00,
2013-09-02 16:28:00,97.5,62.6,29.03,NNE,19,5.8,5.8,32,0.00,,,0.00,LWC V2.10 B1813,2013-09-02 21:28:00,
2013-09-02 16:33:00,97.0,63.0,29.03,North,7,7.6,8.1,33,0.00,,,0.00,LWC V2.10 B1813,2013-09-02 21:33:00,
2013-09-02 16:38:00,96.1,63.1,29.03,ESE,103,3.1,6.3,34,0.00,,,0.00,LWC V2.10 B1813,2013-09-02 21:38:00,
2013-09-02 16:43:00,94.5,62.5,29.03,ESE,112,3.1,8.1,35,0.00,,,0.00,LWC V2.10 B1813,2013-09-02 21:43:00,
2013-09-02 16:48:00,93.6,62.5,29.03,ENE,61,4.0,5.8,36,0.00,,,0.00,LWC V2.10 B1813,2013-09-02 21:48:00,
2013-09-02 16:53:00,94.1,63.8,29.03,NE,52,3.6,3.6,37,0.00,,,0.00,LWC V2.10 B1813,2013-09-02 21:53:00,
2013-09-02 16:58:00,92.8,63.4,29.03,ENE,67,3.6,7.6,38,0.00,,,0.00,LWC V2.10 B1813,2013-09-02 21:58:00,
2013-09-02 17:03:00,91.8,62.5,29.03,ENE,61,4.0,8.3,38,0.00,,,0.00,LWC V2.10 B1813,2013-09-02 22:03:00,
2013-09-02 17:08:00,91.2,62.0,29.03,NE,43,3.1,7.6,38,0.00,,,0.00,LWC V2.10 B1813,2013-09-02 22:08:00,
2013-09-02 17:13:00,90.7,61.5,29.03,NE,46,3.1,7.6,38,0.00,,,0.00,LWC V2.10 B1813,2013-09-02 22:13:00,
2013-09-02 17:18:00,90.1,61.1,29.03,NE,36,5.8,5.8,38,0.00,,,0.00,LWC V2.10 B1813,2013-09-02 22:18:00,
2013-09-02 17:23:00,90.0,60.9,29.03,NE,55,0.0,4.0,38,0.00,,,0.00,LWC V2.10 B1813,2013-09-02 22:23:00,
2013-09-02 17:28:00,90.3,61.2,29.03,East,99,3.6,5.4,38,0.00,,,0.00,LWC V2.10 B1813,2013-09-02 22:28:00,
2013-09-02 17:33:00,91.2,62.0,29.03,SSE,150,3.6,3.6,38,0.00,,,0.00,LWC V2.10 B1813,2013-09-02 22:33:00,
2013-09-02 17:38:00,91.8,62.5,29.03,SE,133,0.0,3.6,38,0.00,,,0.00,LWC V2.10 B1813,2013-09-02 22:38:00,
2013-09-02 17:43:00,92.3,63.0,29.03,ESE,102,3.1,4.0,38,0.00,,,0.00,LWC V2.10 B1813,2013-09-02 22:43:00,
2013-09-02 17:48:00,93.0,62.8,29.03,ENE,63,2.2,2.7,37,0.00,,,0.00,LWC V2.10 B1813,2013-09-02 22:48:00,
2013-09-02 17:53:00,93.7,63.5,29.03,NNE,24,3.1,3.6,37,0.00,,,0.00,LWC V2.10 B1813,2013-09-02 22:53:00,
2013-09-02 17:58:00,93.9,62.9,29.03,NNE,21,4.0,4.0,36,0.00,,,0.00,LWC V2.10 B1813,2013-09-02 22:58:00,
2013-09-02 18:03:00,93.7,62.7,29.00,NNE,30,0.0,3.1,36,0.00,,,0.00,LWC V2.10 B1813,2013-09-02 23:03:00,
2013-09-02 18:08:00,94.5,63.3,29.00,North,9,2.2,4.0,36,0.00,,,0.00,LWC V2.10 B1813,2013-09-02 23:08:00,
2013-09-02 18:13:00,95.0,63.0,29.00,North,353,2.2,5.4,35,0.00,,,0.00,LWC V2.10 B1813,2013-09-02 23:13:00,
2013-09-02 18:18:00,95.4,63.3,29.00,NNE,13,3.1,3.1,35,0.00,,,0.00,LWC V2.10 B1813,2013-09-02 23:18:00,
2013-09-02 18:23:00,95.4,63.3,29.00,North,353,2.7,4.0,35,0.00,,,0.00,LWC V2.10 B1813,2013-09-02 23:23:00,
2013-09-02 18:28:00,95.5,63.5,29.00,NNE,12,2.7,4.0,35,0.00,,,0.00,LWC V2.10 B1813,2013-09-02 23:28:00,
2013-09-02 18:33:00,95.4,62.5,29.00,SE,130,4.0,6.3,34,0.00,,,0.00,LWC V2.10 B1813,2013-09-02 23:33:00,
2013-09-02 18:38:00,95.5,62.6,29.00,NNE,18,0.0,2.7,34,0.00,,,0.00,LWC V2.10 B1813,2013-09-02 23:38:00,
2013-09-02 18:43:00,95.7,62.8,29.00,NNE,29,3.6,3.6,34,0.00,,,0.00,LWC V2.10 B1813,2013-09-02 23:43:00,
2013-09-02 18:48:00,95.2,62.3,29.03,North,0,2.7,3.6,34,0.00,,,0.00,LWC V2.10 B1813,2013-09-02 23:48:00,
2013-09-02 18:53:00,94.8,62.8,29.03,East,84,0.0,2.2,35,0.00,,,0.00,LWC V2.10 B1813,2013-09-02 23:53:00,
2013-09-02 18:58:00,94.3,62.4,29.03,NE,45,0.0,0.0,35,0.00,,,0.00,LWC V2.10 B1813,2013-09-02 23:58:00,
2013-09-02 19:03:00,93.9,62.1,29.03,NNE,16,2.2,2.2,35,0.00,,,0.00,LWC V2.10 B1813,2013-09-03 00:03:00,
2013-09-02 19:08:00,93.6,61.7,29.03,North,357,4.0,8.1,35,0.00,,,0.00,LWC V2.10 B1813,2013-09-03 00:08:00,
2013-09-02 19:13:00,92.7,61.7,29.03,NNW,345,3.1,5.4,36,0.00,,,0.00,LWC V2.10 B1813,2013-09-03 00:13:00,
2013-09-02 19:18:00,92.1,62.1,29.03,North,9,4.0,6.3,37,0.00,,,0.00,LWC V2.10 B1813,2013-09-03 00:18:00,
2013-09-02 19:23:00,91.8,61.7,29.03,NNW,345,3.1,4.0,37,0.00,,,0.00,LWC V2.10 B1813,2013-09-03 00:23:00,
2013-09-02 19:28:00,91.4,61.4,29.03,North,349,0.0,3.1,37,0.00,,,0.00,LWC V2.10 B1813,2013-09-03 00:28:00,
2013-09-02 19:33:00,91.0,61.9,29.03,North,9,0.0,0.0,38,0.00,,,0.00,LWC V2.10 B1813,2013-09-03 00:33:00,
2013-09-02 19:38:00,90.7,61.5,29.03,North,1,2.2,4.0,38,0.00,,,0.00,LWC V2.10 B1813,2013-09-03 00:38:00,
2013-09-02 19:43:00,90.3,61.2,29.03,NW,319,4.9,4.9,38,0.00,,,0.00,LWC V2.10 B1813,2013-09-03 00:43:00,
2013-09-02 19:48:00,89.8,60.7,29.03,North,2,3.1,5.4,38,0.00,,,0.00,LWC V2.10 B1813,2013-09-03 00:48:00,
2013-09-02 19:53:00,89.2,61.0,29.03,North,0,4.9,6.3,39,0.00,,,0.00,LWC V2.10 B1813,2013-09-03 00:53:00,
2013-09-02 19:58:00,88.9,60.7,29.03,North,9,2.7,3.6,39,0.00,,,0.00,LWC V2.10 B1813,2013-09-03 00:58:00,
2013-09-02 20:03:00,88.0,60.6,29.06,ESE,105,5.8,8.1,40,0.00,,,0.00,LWC V2.10 B1813,2013-09-03 01:03:00,
2013-09-02 20:08:00,86.9,61.0,29.06,ENE,68,5.8,5.8,42,0.00,,,0.00,LWC V2.10 B1813,2013-09-03 01:08:00,
2013-09-02 20:13:00,87.4,61.5,29.06,SE,124,7.6,7.6,42,0.00,,,0.00,LWC V2.10 B1813,2013-09-03 01:13:00,
2013-09-02 20:18:00,85.5,60.4,29.06,SE,128,6.3,8.7,43,0.00,,,0.00,LWC V2.10 B1813,2013-09-03 01:18:00,
2013-09-02 20:23:00,83.8,62.0,29.06,SW,217,7.6,8.1,48,0.00,,,0.00,LWC V2.10 B1813,2013-09-03 01:23:00,
2013-09-02 20:28:00,82.4,63.5,29.06,SSE,158,5.8,8.1,53,0.00,,,0.00,LWC V2.10 B1813,2013-09-03 01:28:00,
2013-09-02 20:33:00,82.2,63.9,29.06,South,175,2.7,5.4,54,0.00,,,0.00,LWC V2.10 B1813,2013-09-03 01:33:00,
2013-09-02 20:38:00,82.4,63.5,29.06,SSE,152,3.6,5.4,53,0.00,,,0.00,LWC V2.10 B1813,2013-09-03 01:38:00,
2013-09-02 20:43:00,82.4,64.1,29.06,South,172,2.7,5.8,54,0.00,,,0.00,LWC V2.10 B1813,2013-09-03 01:43:00,
2013-09-02 20:48:00,82.4,63.5,29.06,SE,127,3.6,4.9,53,0.00,,,0.00,LWC V2.10 B1813,2013-09-03 01:48:00,
2013-09-02 20:54:00,82.4,63.5,29.06,South,177,3.6,5.8,53,0.00,,,0.00,LWC V2.10 B1813,2013-09-03 01:54:00,
2013-09-02 20:59:00,82.0,63.7,29.06,South,177,2.2,3.6,54,0.00,,,0.00,LWC V2.10 B1813,2013-09-03 01:59:00,
2013-09-02 21:04:00,81.7,64.4,29.09,South,178,3.1,5.8,56,0.00,,,0.00,LWC V2.10 B1813,2013-09-03 02:04:00,
2013-09-02 21:09:00,81.5,63.7,29.09,NE,43,0.0,3.1,55,0.00,,,0.00,LWC V2.10 B1813,2013-09-03 02:09:00,
2013-09-02 21:14:00,81.5,63.7,29.09,ENE,61,0.0,3.1,55,0.00,,,0.00,LWC V2.10 B1813,2013-09-03 02:14:00,
2013-09-02 21:19:00,81.5,63.7,29.09,NE,47,3.1,3.6,55,0.00,,,0.00,LWC V2.10 B1813,2013-09-03 02:19:00,
2013-09-02 21:24:00,81.9,63.6,29.09,East,79,4.9,5.4,54,0.00,,,0.00,LWC V2.10 B1813,2013-09-03 02:24:00,
2013-09-02 21:29:00,82.2,63.4,29.09,East,84,2.2,3.6,53,0.00,,,0.00,LWC V2.10 B1813,2013-09-03 02:29:00,
2013-09-02 21:34:00,82.4,63.0,29.09,ESE,116,2.2,2.2,52,0.00,,,0.00,LWC V2.10 B1813,2013-09-03 02:34:00,
2013-09-02 21:39:00,82.8,63.3,29.09,ESE,107,0.0,2.7,52,0.00,,,0.00,LWC V2.10 B1813,2013-09-03 02:39:00,
2013-09-02 21:44:00,83.3,63.8,29.09,SSW,205,3.1,3.1,52,0.00,,,0.00,LWC V2.10 B1813,2013-09-03 02:44:00,
2013-09-02 21:49:00,82.9,64.6,29.09,SW,229,3.1,5.4,54,0.00,,,0.00,LWC V2.10 B1813,2013-09-03 02:49:00,
2013-09-02 21:54:00,82.8,64.9,29.09,SW,236,2.7,3.6,55,0.00,,,0.00,LWC V2.10 B1813,2013-09-03 02:54:00,
2013-09-02 21:59:00,82.4,65.1,29.09,SW,228,0.0,4.0,56,0.00,,,0.00,LWC V2.10 B1813,2013-09-03 02:59:00,
2013-09-02 22:04:00,82.2,65.4,29.09,West,261,3.1,4.0,57,0.00,,,0.00,LWC V2.10 B1813,2013-09-03 03:04:00,
2013-09-02 22:09:00,82.0,65.8,29.09,West,267,3.1,3.1,58,0.00,,,0.00,LWC V2.10 B1813,2013-09-03 03:09:00,
2013-09-02 22:14:00,82.2,65.4,29.09,West,278,0.0,0.0,57,0.00,,,0.00,LWC V2.10 B1813,2013-09-03 03:14:00,
2013-09-02 22:19:00,82.2,64.9,29.12,West,278,0.0,0.0,56,0.00,,,0.00,LWC V2.10 B1813,2013-09-03 03:19:00,
2013-09-02 22:24:00,82.0,64.8,29.12,West,278,0.0,0.0,56,0.00,,,0.00,LWC V2.10 B1813,2013-09-03 03:24:00,
2013-09-02 22:29:00,81.9,65.1,29.12,ESE,111,2.2,2.2,57,0.00,,,0.00,LWC V2.10 B1813,2013-09-03 03:29:00,
2013-09-02 22:34:00,81.7,65.4,29.12,SSE,149,2.2,3.1,58,0.00,,,0.00,LWC V2.10 B1813,2013-09-03 03:34:00,
2013-09-02 22:39:00,81.7,64.9,29.12,ESE,115,2.7,3.1,57,0.00,,,0.00,LWC V2.10 B1813,2013-09-03 03:39:00,
2013-09-02 22:44:00,81.5,64.8,29.12,ESE,122,3.1,4.0,57,0.00,,,0.00,LWC V2.10 B1813,2013-09-03 03:44:00,
2013-09-02 22:49:00,81.3,65.6,29.09,ESE,123,3.1,4.5,59,0.00,,,0.00,LWC V2.10 B1813,2013-09-03 03:49:00,
2013-09-02 22:54:00,81.0,65.7,29.09,ESE,121,4.0,4.5,60,0.00,,,0.00,LWC V2.10 B1813,2013-09-03 03:54:00,
2013-09-02 22:59:00,81.1,65.9,29.09,SSE,154,2.7,2.7,60,0.00,,,0.00,LWC V2.10 B1813,2013-09-03 03:59:00,
2013-09-02 23:01:00,81.1,65.9,29.09,SSE,150,0.0,2.7,60,0.00,,,0.00,LWC V2.10 B1813,2013-09-03 04:01:00,
2013-09-02 23:03:00,81.1,66.4,29.12,South,176,3.1,3.1,61,0.00,,,0.00,LWC V2.10 B1813,2013-09-03 04:03:00,
2013-09-02 23:05:00,81.1,66.4,29.12,South,185,2.7,4.0,61,0.00,,,0.00,LWC V2.10 B1813,2013-09-03 04:05:00,
2013-09-02 23:10:00,81.0,67.6,29.12,SW,223,3.6,5.4,64,0.00,,,0.00,LWC V2.10 B1813,2013-09-03 04:10:00,
2013-09-02 23:15:00,80.6,67.7,29.12,SW,226,4.9,5.4,65,0.00,,,0.00,LWC V2.10 B1813,2013-09-03 04:15:00,
2013-09-02 23:20:00,80.2,68.3,29.12,South,191,2.7,4.0,67,0.00,,,0.00,LWC V2.10 B1813,2013-09-03 04:20:00,
2013-09-02 23:25:00,80.2,68.3,29.12,SW,217,3.1,4.0,67,0.00,,,0.00,LWC V2.10 B1813,2013-09-03 04:25:00,
2013-09-02 23:30:00,80.2,68.3,29.12,SSW,198,2.7,2.7,67,0.00,,,0.00,LWC V2.10 B1813,2013-09-03 04:30:00,
2013-09-02 23:35:00,80.2,68.3,29.12,WSW,252,2.7,3.1,67,0.00,,,0.00,LWC V2.10 B1813,2013-09-03 04:35:00,
2013-09-02 23:40:00,80.1,68.1,29.12,SW,218,2.7,3.1,67,0.00,,,0.00,LWC V2.10 B1813,2013-09-03 04:40:00,
2013-09-02 23:45:00,79.9,67.9,29.12,SSW,198,2.2,3.6,67,0.00,,,0.00,LWC V2.10 B1813,2013-09-03 04:45:00,
2013-09-02 23:50:00,79.9,67.9,29.12,SSW,199,3.1,3.6,67,0.00,,,0.00,LWC V2.10 B1813,2013-09-03 04:50:00,
2013-09-02 23:55:00,80.1,67.7,29.12,South,176,0.0,3.1,66,0.00,,,0.00,LWC V2.10 B1813,2013-09-03 04:55:00,